Time;durP1;ratioP1;P1;durP2;ratioP2;P2;SDS_P1;SDS_P2;PMS_P1;PMS_P2;Temp;Humidity;BMP_temperature;BMP_pressure;BME280_temperature;BME280_humidity;BME280_pressure;Samples;Min_cycle;Max_cycle;Signal;HPM_P1;HPM_P2
2023/06/17 00:02:12;;;;;;;20.02;12.93;;;;;;;;;;5092909;28;20419;-78
2023/06/17 00:04:38;;;;;;;18.60;12.98;;;16.30;99.90;;;;;;5102690;28;20418;-77
2023/06/17 00:07:04;;;;;;;16.37;13.57;;;;;;;;;;5094282;28;20425;-79
2023/06/17 00:09:30;;;;;;;17.77;13.87;;;;;;;;;;5077315;28;20474;-79
2023/06/17 00:11:56;;;;;;;20.13;13.73;;;16.10;99.90;;;;;;5092416;28;20416;-78
2023/06/17 00:14:23;;;;;;;17.25;13.55;;;;;;;;;;5079222;28;20503;-79
2023/06/17 00:16:49;;;;;;;18.02;13.45;;;16.10;99.90;;;;;;5092373;28;20471;-78
2023/06/17 00:19:17;;;;;;;18.83;13.77;;;16.10;99.90;;;;;;5098355;28;20419;-79
2023/06/17 00:21:44;;;;;;;19.30;14.50;;;;;;;;;;5111611;28;20472;-79
2023/06/17 00:24:13;;;;;;;16.08;13.77;;;16.00;99.90;;;;;;5093413;28;20495;-79
2023/06/17 00:26:39;;;;;;;19.48;13.90;;;;;;;;;;5094157;28;20962;-79
2023/06/17 00:29:06;;;;;;;17.90;14.43;;;15.90;99.90;;;;;;5101138;28;20420;-79
2023/06/17 00:31:32;;;;;;;21.50;15.23;;;;;;;;;;5098651;28;20420;-79
2023/06/17 00:33:58;;;;;;;18.93;14.73;;;16.10;99.90;;;;;;5100876;28;20505;-78
2023/06/17 00:36:24;;;;;;;18.67;14.10;;;;;;;;;;5090748;28;20913;-79
2023/06/17 00:38:50;;;;;;;19.83;13.97;;;;;;;;;;5104646;28;20480;-78
2023/06/17 00:41:16;;;;;;;18.27;14.60;;;16.20;99.90;;;;;;5097421;28;20415;-78
2023/06/17 00:43:43;;;;;;;16.95;13.70;;;;;;;;;;5095073;28;20399;-77
2023/06/17 00:46:11;;;;;;;17.92;14.05;;;16.20;99.90;;;;;;5091223;28;20492;-78
2023/06/17 00:48:37;;;;;;;18.75;14.05;;;;;;;;;;5111976;28;20443;-78
2023/06/17 00:51:04;;;;;;;19.57;14.03;;;;;;;;;;5106345;28;20435;-77
2023/06/17 00:53:31;;;;;;;21.95;14.95;;;;;;;;;;5087026;28;20551;-78
2023/06/17 00:55:58;;;;;;;18.27;14.53;;;;;;;;;;5074353;28;20428;-78
2023/06/17 00:58:25;;;;;;;18.65;14.63;;;16.30;99.90;;;;;;5092791;28;20704;-79
2023/06/17 01:00:51;;;;;;;21.97;15.03;;;16.20;99.90;;;;;;5092033;28;20531;-77
2023/06/17 01:03:17;;;;;;;22.00;15.50;;;;;;;;;;5080658;28;20497;-78
2023/06/17 01:05:45;;;;;;;20.33;14.90;;;16.30;99.90;;;;;;5095182;28;20465;-78
2023/06/17 01:08:33;;;;;;;19.52;16.02;;;16.20;99.90;;;;;;5074967;28;20402;-78
2023/06/17 01:11:00;;;;;;;27.55;16.63;;;;;;;;;;5094413;28;20441;-78
2023/06/17 01:13:27;;;;;;;20.20;15.40;;;16.20;99.90;;;;;;5115110;28;20624;-77
2023/06/17 01:15:54;;;;;;;22.45;15.40;;;16.20;99.90;;;;;;5102823;28;20430;-77
2023/06/17 01:18:21;;;;;;;26.90;16.65;;;16.00;99.90;;;;;;5095430;28;20422;-77
2023/06/17 01:20:52;;;;;;;22.90;15.85;;;16.20;99.90;;;;;;5101040;28;20907;-78
2023/06/17 01:23:21;;;;;;;22.13;16.00;;;16.20;99.90;;;;;;5111023;28;20461;-77
2023/06/17 01:25:47;;;;;;;23.00;16.45;;;;;;;;;;5098973;28;20424;-78
2023/06/17 01:28:16;;;;;;;25.08;16.83;;;16.40;99.90;;;;;;5115499;28;20907;-78
2023/06/17 01:30:43;;;;;;;25.50;17.23;;;16.10;99.90;;;;;;5096016;28;20420;-77
2023/06/17 01:33:11;;;;;;;25.65;18.10;;;16.20;99.90;;;;;;5091461;28;20426;-77
2023/06/17 01:35:39;;;;;;;28.73;18.63;;;16.00;99.90;;;;;;5089155;28;20437;-78
2023/06/17 01:38:09;;;;;;;28.92;18.80;;;16.00;99.90;;;;;;5108257;28;20477;-78
2023/06/17 01:40:37;;;;;;;24.92;18.48;;;16.10;99.90;;;;;;5108355;28;20481;-78
2023/06/17 01:43:05;;;;;;;29.07;20.00;;;;;;;;;;5100701;28;20453;-78
2023/06/17 01:45:31;;;;;;;28.13;20.52;;;;;;;;;;5082764;28;20417;-78
2023/06/17 01:47:57;;;;;;;29.40;20.67;;;;;;;;;;5103786;28;20416;-79
2023/06/17 01:50:23;;;;;;;29.17;21.42;;;;;;;;;;5111274;28;20963;-77
2023/06/17 01:52:49;;;;;;;31.07;22.50;;;;;;;;;;5091486;28;20806;-78
2023/06/17 01:55:17;;;;;;;27.50;21.25;;;15.70;99.90;;;;;;5095782;28;20436;-77
2023/06/17 01:57:43;;;;;;;25.88;20.85;;;15.40;99.90;;;;;;5099028;28;20905;-78
2023/06/17 02:00:12;;;;;;;29.70;21.58;;;15.70;99.90;;;;;;5095638;28;20409;-78
2023/06/17 02:02:38;;;;;;;31.83;23.00;;;15.70;99.90;;;;;;5095987;28;20417;-78
2023/06/17 02:05:04;;;;;;;29.27;22.37;;;;;;;;;;5092639;28;20421;-79
2023/06/17 02:07:30;;;;;;;31.48;23.23;;;;;;;;;;5097054;28;20807;-79
2023/06/17 02:09:57;;;;;;;32.23;23.23;;;15.60;99.90;;;;;;5099531;28;20982;-79
2023/06/17 02:12:24;;;;;;;31.73;22.38;;;15.50;99.90;;;;;;5098711;28;20470;-78
2023/06/17 02:14:50;;;;;;;30.13;22.42;;;15.60;99.90;;;;;;5098261;28;20414;-77
2023/06/17 02:17:17;;;;;;;32.20;22.77;;;;;;;;;;5091487;28;20424;-77
2023/06/17 02:19:43;;;;;;;30.88;22.13;;;15.80;99.90;;;;;;5111940;28;20416;-78
2023/06/17 02:22:08;;;;;;;31.17;22.35;;;15.50;99.90;;;;;;5083701;28;20429;-78
2023/06/17 02:24:34;;;;;;;29.63;22.42;;;15.50;99.90;;;;;;5092435;28;20844;-78
2023/06/17 02:27:01;;;;;;;34.67;22.65;;;15.50;99.90;;;;;;5082383;28;20429;-78
2023/06/17 02:29:26;;;;;;;30.90;22.80;;;15.40;99.90;;;;;;5105526;28;20515;-78
2023/06/17 02:31:53;;;;;;;30.52;22.88;;;;;;;;;;5102544;28;20496;-78
2023/06/17 02:34:19;;;;;;;30.38;22.30;;;15.70;99.90;;;;;;5076516;28;20425;-78
2023/06/17 02:36:45;;;;;;;31.58;23.60;;;15.70;99.90;;;;;;5077816;28;20410;-79
2023/06/17 02:39:12;;;;;;;33.55;22.45;;;;;;;;;;5109829;28;20406;-79
2023/06/17 02:41:38;;;;;;;31.08;22.52;;;;;;;;;;5093255;28;20427;-77
2023/06/17 02:44:04;;;;;;;34.33;23.75;;;;;;;;;;5084105;28;20883;-79
2023/06/17 02:46:30;;;;;;;31.88;23.40;;;15.50;99.90;;;;;;5086426;28;21051;-79
2023/06/17 02:48:56;;;;;;;34.78;23.88;;;15.30;99.90;;;;;;5094817;28;20408;-79
2023/06/17 02:51:23;;;;;;;38.95;25.23;;;15.50;99.90;;;;;;5107745;28;20420;-79
2023/06/17 02:53:49;;;;;;;34.33;24.20;;;15.50;99.90;;;;;;5085877;28;20537;-77
2023/06/17 02:56:16;;;;;;;30.63;23.27;;;;;;;;;;5104690;28;20424;-77
2023/06/17 02:58:45;;;;;;;35.08;24.40;;;;;;;;;;5077463;28;20805;-78
2023/06/17 03:01:12;;;;;;;35.38;25.33;;;15.50;99.90;;;;;;5092132;28;20432;-79
2023/06/17 03:03:41;;;;;;;38.15;25.67;;;;;;;;;;5096814;28;20931;-78
2023/06/17 03:06:08;;;;;;;36.58;26.25;;;;;;;;;;5097747;28;20420;-78
2023/06/17 03:08:35;;;;;;;36.57;26.10;;;;;;;;;;5094425;28;20477;-78
2023/06/17 03:11:02;;;;;;;35.45;25.75;;;;;;;;;;5077995;28;20416;-78
2023/06/17 03:13:28;;;;;;;38.57;27.87;;;15.70;99.90;;;;;;5082058;28;20413;-78
2023/06/17 03:15:54;;;;;;;36.53;26.80;;;;;;;;;;5081821;28;20444;-78
2023/06/17 03:18:23;;;;;;;34.97;27.07;;;15.50;99.90;;;;;;5084509;28;20905;-77
2023/06/17 03:20:50;;;;;;;38.30;28.13;;;15.40;99.90;;;;;;5094644;28;20418;-77
2023/06/17 03:23:16;;;;;;;39.08;28.35;;;15.40;99.90;;;;;;5093218;28;20436;-78
2023/06/17 03:25:42;;;;;;;44.30;28.52;;;15.30;99.90;;;;;;5095177;28;20909;-78
2023/06/17 03:28:09;;;;;;;39.50;29.10;;;;;;;;;;5098682;28;20418;-78
2023/06/17 03:30:35;;;;;;;40.20;28.40;;;;;;;;;;5096099;28;20980;-78
2023/06/17 03:33:01;;;;;;;39.67;27.77;;;;;;;;;;5107772;28;20481;-79
2023/06/17 03:35:27;;;;;;;37.85;28.33;;;;;;;;;;5091328;28;20475;-78
2023/06/17 03:37:54;;;;;;;39.42;28.50;;;;;;;;;;5105850;28;20413;-78
2023/06/17 03:40:19;;;;;;;37.53;27.58;;;15.20;99.90;;;;;;5092387;28;20431;-78
2023/06/17 03:42:45;;;;;;;37.03;27.17;;;;;;;;;;5108356;28;20416;-78
2023/06/17 03:45:11;;;;;;;37.90;28.08;;;;;;;;;;5109298;28;20907;-78
2023/06/17 03:47:38;;;;;;;38.67;27.50;;;;;;;;;;5096290;28;20785;-79
2023/06/17 03:50:05;;;;;;;39.95;27.80;;;;;;;;;;5094897;28;20410;-79
2023/06/17 03:52:31;;;;;;;37.38;27.08;;;;;;;;;;5097324;28;20420;-79
2023/06/17 03:54:57;;;;;;;38.63;26.73;;;;;;;;;;5090535;28;20429;-79
2023/06/17 03:57:23;;;;;;;34.83;26.23;;;;;;;;;;5108083;28;20421;-79
2023/06/17 03:59:49;;;;;;;33.00;24.85;;;15.70;99.90;;;;;;5077556;28;20405;-79
2023/06/17 04:02:15;;;;;;;35.03;25.30;;;15.40;99.90;;;;;;5094006;28;20410;-79
2023/06/17 04:04:40;;;;;;;34.95;25.50;;;15.30;99.90;;;;;;5097863;28;21050;-79
2023/06/17 04:07:06;;;;;;;32.25;23.50;;;;;;;;;;5099059;28;20433;-79
2023/06/17 04:09:32;;;;;;;33.85;26.00;;;;;;;;;;5094528;28;20773;-79
2023/06/17 04:11:59;;;;;;;36.78;25.85;;;;;;;;;;5108246;28;20411;-79
2023/06/17 04:14:25;;;;;;;34.67;25.33;;;;;;;;;;5101754;28;20417;-79
2023/06/17 04:16:51;;;;;;;36.13;25.40;;;;;;;;;;5094913;28;20469;-79
2023/06/17 04:19:17;;;;;;;36.00;26.17;;;15.30;99.90;;;;;;5084641;28;20423;-80
2023/06/17 04:21:46;;;;;;;38.83;26.67;;;;;;;;;;5094078;28;20798;-79
2023/06/17 04:24:12;;;;;;;40.75;25.83;;;15.50;99.90;;;;;;5099002;28;20413;-78
2023/06/17 04:26:37;;;;;;;34.53;25.40;;;15.50;99.90;;;;;;5109694;28;20412;-79
2023/06/17 04:29:03;;;;;;;34.30;25.47;;;15.50;99.90;;;;;;5083632;28;20504;-78
2023/06/17 04:31:29;;;;;;;34.80;24.47;;;;;;;;;;5094645;28;20422;-78
2023/06/17 04:33:55;;;;;;;33.60;25.00;;;15.50;99.90;;;;;;5085386;28;20457;-78
2023/06/17 04:36:23;;;;;;;31.17;24.80;;;15.70;99.90;;;;;;5096894;28;20543;-78
2023/06/17 04:38:49;;;;;;;30.48;24.13;;;;;;;;;;5092006;28;20579;-78
2023/06/17 04:41:19;;;;;;;33.88;23.55;;;;;;;;;;5074614;28;20413;-78
2023/06/17 04:43:48;;;;;;;32.80;24.85;;;;;;;;;;5090373;28;20451;-77
2023/06/17 04:46:17;;;;;;;30.98;22.92;;;;;;;;;;5097416;28;20509;-77
2023/06/17 04:48:44;;;;;;;35.17;23.88;;;;;;;;;;5092752;28;20446;-78
2023/06/17 04:51:10;;;;;;;32.20;23.40;;;;;;;;;;5091515;28;20404;-78
2023/06/17 04:53:39;;;;;;;34.80;23.47;;;15.40;99.90;;;;;;5079543;28;20420;-78
2023/06/17 04:56:06;;;;;;;32.08;23.23;;;15.30;99.90;;;;;;5076527;28;20437;-79
2023/06/17 04:58:34;;;;;;;31.20;23.80;;;15.60;99.90;;;;;;5093964;28;20459;-79
2023/06/17 05:00:59;;;;;;;35.95;24.90;;;15.40;99.90;;;;;;5082011;28;20426;-79
2023/06/17 05:03:25;;;;;;;34.40;24.58;;;15.50;99.90;;;;;;5092980;28;20482;-77
2023/06/17 05:05:54;;;;;;;33.53;23.83;;;;;;;;;;5092234;28;20490;-79
2023/06/17 05:08:20;;;;;;;32.45;23.60;;;;;;;;;;5077550;28;20431;-80
2023/06/17 05:10:46;;;;;;;32.90;23.88;;;15.50;99.90;;;;;;5092373;28;20425;-79
2023/06/17 05:13:12;;;;;;;35.53;24.55;;;;;;;;;;5091295;28;20420;-79
2023/06/17 05:15:38;;;;;;;31.88;24.10;;;;;;;;;;5087599;28;20430;-78
2023/06/17 05:18:04;;;;;;;30.40;23.50;;;;;;;;;;5078331;28;20443;-79
2023/06/17 05:20:30;;;;;;;32.17;23.65;;;;;;;;;;5102317;28;20499;-78
2023/06/17 05:22:56;;;;;;;30.37;23.70;;;;;;;;;;5076429;28;20909;-79
2023/06/17 05:25:22;;;;;;;34.50;24.25;;;15.70;99.90;;;;;;5100245;28;20422;-79
2023/06/17 05:27:48;;;;;;;32.20;22.67;;;;;;;;;;5084166;28;20413;-79
2023/06/17 05:30:14;;;;;;;29.88;22.67;;;15.90;99.90;;;;;;5095020;28;20431;-78
2023/06/17 05:32:40;;;;;;;30.77;22.42;;;;;;;;;;5099978;28;20430;-78
2023/06/17 05:35:06;;;;;;;31.55;22.98;;;15.80;99.90;;;;;;5108530;28;20811;-78
2023/06/17 05:37:32;;;;;;;34.72;23.30;;;;;;;;;;5079497;28;20425;-79
2023/06/17 05:39:58;;;;;;;30.88;22.63;;;;;;;;;;5105881;28;20436;-78
2023/06/17 05:42:24;;;;;;;31.93;23.63;;;;;;;;;;5111702;28;20407;-78
2023/06/17 05:44:50;;;;;;;30.08;24.00;;;16.00;99.90;;;;;;5109721;28;20408;-77
2023/06/17 05:47:16;;;;;;;32.63;24.30;;;15.80;99.90;;;;;;5103497;28;20872;-78
2023/06/17 05:49:42;;;;;;;31.85;23.35;;;;;;;;;;5095255;28;20426;-77
2023/06/17 05:52:07;;;;;;;31.15;23.55;;;16.10;99.90;;;;;;5107720;28;20412;-78
2023/06/17 05:54:33;;;;;;;33.67;24.02;;;16.10;99.90;;;;;;5110049;28;20976;-77
2023/06/17 05:56:59;;;;;;;31.63;23.70;;;16.20;99.90;;;;;;5059420;28;20422;-77
2023/06/17 05:59:28;;;;;;;32.30;24.60;;;;;;;;;;5081017;28;20442;-77
2023/06/17 06:01:54;;;;;;;32.13;23.73;;;16.20;99.90;;;;;;5097596;28;20415;-78
2023/06/17 06:04:20;;;;;;;32.10;23.77;;;16.00;99.90;;;;;;5080799;28;20406;-77
2023/06/17 06:06:46;;;;;;;30.87;23.23;;;;;;;;;;5100432;28;20425;-77
2023/06/17 06:09:11;;;;;;;32.33;23.00;;;16.10;99.90;;;;;;5113743;28;20440;-77
2023/06/17 06:11:37;;;;;;;30.57;21.93;;;;;;;;;;5081026;28;20466;-77
2023/06/17 06:14:03;;;;;;;30.42;22.85;;;15.90;99.90;;;;;;5105442;28;20419;-77
2023/06/17 06:16:29;;;;;;;35.03;22.87;;;;;;;;;;5099279;28;20464;-76
2023/06/17 06:18:55;;;;;;;26.05;20.33;;;;;;;;;;5082733;28;20412;-77
2023/06/17 06:21:22;;;;;;;26.58;19.25;;;;;;;;;;5081477;28;20917;-78
2023/06/17 06:23:49;;;;;;;26.65;19.35;;;;;;;;;;5098174;28;20477;-78
2023/06/17 06:26:15;;;;;;;25.73;19.85;;;;;;;;;;5101927;28;20813;-78
2023/06/17 06:28:41;;;;;;;25.30;18.80;;;;;;;;;;5103433;28;20543;-78
2023/06/17 06:31:08;;;;;;;28.75;19.05;;;;;;;;;;5077560;28;20412;-77
2023/06/17 06:33:35;;;;;;;27.88;19.80;;;;;;;;;;5109325;28;20453;-78
2023/06/17 06:36:01;;;;;;;25.70;19.55;;;16.10;99.90;;;;;;5096908;28;20426;-76
2023/06/17 06:38:26;;;;;;;27.65;19.60;;;16.00;99.90;;;;;;5100348;28;20410;-76
2023/06/17 06:40:52;;;;;;;24.00;18.67;;;;;;;;;;5106312;28;20421;-75
2023/06/17 06:43:18;;;;;;;24.33;18.50;;;;;;;;;;5089318;28;20419;-76
2023/06/17 06:45:44;;;;;;;28.60;18.65;;;16.30;99.90;;;;;;5088167;28;20418;-76
2023/06/17 06:48:10;;;;;;;24.23;18.67;;;;;;;;;;5048757;28;20935;-76
2023/06/17 06:50:36;;;;;;;25.13;19.17;;;16.20;99.90;;;;;;5083583;28;20429;-76
2023/06/17 06:53:02;;;;;;;27.53;18.93;;;;;;;;;;5105358;28;20414;-76
2023/06/17 06:55:29;;;;;;;22.33;18.07;;;;;;;;;;5114064;28;20475;-76
2023/06/17 06:57:55;;;;;;;23.05;18.25;;;;;;;;;;5094611;28;20583;-75
2023/06/17 07:00:21;;;;;;;22.63;17.98;;;;;;;;;;5066057;28;20409;-76
2023/06/17 07:02:47;;;;;;;25.83;17.63;;;16.50;99.90;;;;;;5098526;28;20427;-75
2023/06/17 07:05:13;;;;;;;25.02;17.70;;;;;;;;;;5097051;28;20905;-75
2023/06/17 07:07:39;;;;;;;24.67;18.08;;;;;;;;;;5080414;28;20410;-77
2023/06/17 07:10:05;;;;;;;22.75;17.42;;;;;;;;;;5098812;28;20426;-76
2023/06/17 07:12:31;;;;;;;25.67;17.67;;;;;;;;;;5084516;28;20414;-77
2023/06/17 07:14:57;;;;;;;21.73;17.25;;;17.00;99.90;;;;;;5093004;28;20473;-77
2023/06/17 07:17:23;;;;;;;21.57;16.90;;;17.20;99.90;;;;;;5077820;28;20500;-76
2023/06/17 07:19:48;;;;;;;22.43;16.43;;;17.00;99.90;;;;;;5103210;28;20423;-76
2023/06/17 07:22:14;;;;;;;23.17;16.13;;;;;;;;;;5087783;28;20429;-77
2023/06/17 07:24:41;;;;;;;20.58;16.10;;;;;;;;;;5088231;28;20420;-77
2023/06/17 07:27:06;;;;;;;24.75;15.80;;;17.50;99.90;;;;;;5110093;28;20410;-77
2023/06/17 07:29:32;;;;;;;20.70;15.45;;;;;;;;;;5075322;28;20437;-74
2023/06/17 07:31:58;;;;;;;23.60;16.08;;;;;;;;;;5080214;28;20432;-75
2023/06/17 07:34:24;;;;;;;21.88;16.40;;;17.80;99.90;;;;;;5076401;28;20464;-76
2023/06/17 07:36:52;;;;;;;23.67;16.45;;;17.80;99.90;;;;;;5075269;28;20426;-76
2023/06/17 07:39:20;;;;;;;23.73;16.60;;;17.80;99.90;;;;;;5096892;28;20414;-76
2023/06/17 07:41:46;;;;;;;22.00;16.00;;;;;;;;;;5075394;28;20777;-76
2023/06/17 07:44:12;;;;;;;21.00;16.00;;;;;;;;;;5092605;28;20483;-76
2023/06/17 07:46:38;;;;;;;21.15;14.85;;;;;;;;;;5061210;28;20418;-77
2023/06/17 07:49:03;;;;;;;23.60;15.75;;;18.10;99.90;;;;;;5083970;28;20420;-76
2023/06/17 07:51:30;;;;;;;21.67;15.47;;;18.10;99.90;;;;;;5091043;28;20417;-76
2023/06/17 07:53:56;;;;;;;20.75;15.35;;;17.80;99.90;;;;;;5080941;28;20422;-75
2023/06/17 07:56:22;;;;;;;20.95;14.10;;;;;;;;;;5105008;28;20757;-76
2023/06/17 07:58:48;;;;;;;20.23;15.02;;;;;;;;;;5063153;28;21010;-76
2023/06/17 08:01:15;;;;;;;21.25;15.40;;;;;;;;;;5099225;28;20422;-77
2023/06/17 08:03:41;;;;;;;19.33;14.80;;;;;;;;;;5081920;28;20829;-78
2023/06/17 08:06:08;;;;;;;21.60;15.05;;;19.10;99.90;;;;;;5099990;28;20436;-77
2023/06/17 08:08:34;;;;;;;21.80;14.48;;;;;;;;;;5065898;28;20448;-77
2023/06/17 08:11:00;;;;;;;18.27;14.30;;;;;;;;;;5108851;28;20424;-77
2023/06/17 08:13:26;;;;;;;20.75;14.43;;;19.50;99.90;;;;;;5105473;28;20433;-78
2023/06/17 08:15:52;;;;;;;19.33;13.73;;;;;;;;;;5095932;28;20671;-76
2023/06/17 08:18:18;;;;;;;16.57;13.53;;;19.90;99.90;;;;;;5078474;28;20425;-77
2023/06/17 08:20:43;;;;;;;18.37;13.40;;;19.70;99.90;;;;;;5075341;28;20426;-77
2023/06/17 08:23:09;;;;;;;17.25;13.15;;;20.30;99.90;;;;;;5076095;28;20421;-75
2023/06/17 08:25:35;;;;;;;18.02;13.30;;;20.10;99.90;;;;;;5081984;28;20505;-76
2023/06/17 08:28:01;;;;;;;18.27;13.20;;;20.20;99.90;;;;;;5095096;28;20421;-76
2023/06/17 08:30:26;;;;;;;17.67;13.10;;;20.30;99.90;;;;;;5076944;28;20412;-75
2023/06/17 08:32:52;;;;;;;17.55;12.70;;;20.20;99.90;;;;;;5100500;28;20437;-77
2023/06/17 08:35:18;;;;;;;16.10;12.63;;;20.40;99.90;;;;;;5100493;28;20416;-75
2023/06/17 08:37:44;;;;;;;18.52;12.40;;;;;;;;;;5098723;28;20414;-76
2023/06/17 08:40:14;;;;;;;19.23;13.13;;;20.70;99.90;;;;;;5073802;28;20432;-76
2023/06/17 08:42:41;;;;;;;18.35;12.88;;;20.80;99.90;;;;;;5065124;28;20432;-76
2023/06/17 08:45:07;;;;;;;16.23;12.43;;;20.90;99.90;;;;;;5073823;28;20424;-75
2023/06/17 08:47:33;;;;;;;17.88;13.23;;;20.60;99.90;;;;;;5073273;28;20501;-75
2023/06/17 08:49:59;;;;;;;17.67;13.33;;;20.70;99.90;;;;;;5095476;28;20492;-74
2023/06/17 08:52:27;;;;;;;17.95;12.73;;;20.60;99.90;;;;;;5074942;28;20414;-74
2023/06/17 08:54:53;;;;;;;16.33;11.65;;;21.10;99.90;;;;;;5098044;28;20521;-75
2023/06/17 08:57:19;;;;;;;16.13;11.55;;;21.00;99.90;;;;;;5096753;28;20481;-74
2023/06/17 08:59:45;;;;;;;17.17;11.60;;;21.20;99.90;;;;;;5080871;28;21069;-74
2023/06/17 09:02:14;;;;;;;16.70;11.55;;;21.20;99.90;;;;;;5071140;28;20404;-76
2023/06/17 09:04:40;;;;;;;21.20;13.20;;;;;;;;;;5096844;28;20497;-75
2023/06/17 09:07:08;;;;;;;15.77;12.05;;;21.00;99.90;;;;;;5089557;28;20417;-74
2023/06/17 09:09:34;;;;;;;18.05;12.32;;;21.30;99.90;;;;;;5083463;28;20433;-75
2023/06/17 09:12:05;;;;;;;17.73;11.70;;;21.60;99.90;;;;;;5091190;28;20917;-75
2023/06/17 09:14:31;;;;;;;15.55;11.10;;;21.50;99.90;;;;;;5088672;28;20485;-75
2023/06/17 09:16:58;;;;;;;15.25;11.20;;;21.80;99.90;;;;;;5088330;28;20532;-75
2023/06/17 09:19:24;;;;;;;16.65;10.90;;;21.80;99.90;;;;;;5076936;28;20416;-75
2023/06/17 09:21:50;;;;;;;13.85;10.43;;;22.00;99.90;;;;;;5089381;28;20412;-75
2023/06/17 09:24:16;;;;;;;17.00;11.63;;;22.10;99.90;;;;;;5086216;28;20453;-75
2023/06/17 09:26:43;;;;;;;15.57;10.63;;;22.30;99.90;;;;;;5073740;28;20507;-74
2023/06/17 09:29:10;;;;;;;16.27;10.30;;;22.50;99.90;;;;;;5084846;28;20938;-74
2023/06/17 09:31:56;;;;;;;15.02;11.20;;;22.50;99.90;;;;;;5079816;28;20416;-75
2023/06/17 09:34:22;;;;;;;13.80;10.38;;;22.70;99.90;;;;;;5093541;28;20548;-75
2023/06/17 09:37:00;;;;;;;16.55;10.88;;;22.80;99.90;;;;;;5101680;28;20432;-75
2023/06/17 09:39:33;;;;;;;14.20;10.65;;;22.50;99.90;;;;;;5100484;28;20424;-75
2023/06/17 09:42:09;;;;;;;12.73;9.63;;;22.70;99.90;;;;;;5105209;28;20817;-75
2023/06/17 09:44:37;;;;;;;13.15;10.07;;;22.90;99.90;;;;;;5080914;28;20495;-75
2023/06/17 09:47:10;;;;;;;12.98;9.70;;;23.10;99.90;;;;;;5095397;28;20417;-76
2023/06/17 09:49:36;;;;;;;17.30;10.68;;;23.20;99.90;;;;;;5105393;28;20421;-76
2023/06/17 09:52:05;;;;;;;13.55;10.02;;;23.40;99.90;;;;;;5101440;28;20926;-76
2023/06/17 09:54:32;;;;;;;14.40;9.80;;;23.30;99.90;;;;;;5105181;28;20508;-75
2023/06/17 09:57:01;;;;;;;14.30;10.02;;;23.20;99.90;;;;;;5079132;28;20825;-76
2023/06/17 09:59:28;;;;;;;14.07;9.80;;;23.20;99.90;;;;;;5109646;28;20425;-75
2023/06/17 10:01:54;;;;;;;12.43;8.77;;;23.50;99.90;;;;;;5077602;28;20425;-75
2023/06/17 10:04:21;;;;;;;11.98;8.95;;;23.80;99.90;;;;;;5077316;28;20426;-75
2023/06/17 10:06:49;;;;;;;13.50;9.77;;;23.90;99.90;;;;;;5096826;28;20417;-75
2023/06/17 10:09:15;;;;;;;15.50;10.15;;;24.00;99.90;;;;;;5102649;28;20821;-77
2023/06/17 10:11:45;;;;;;;14.73;9.60;;;23.70;99.90;;;;;;5081231;28;20461;-76
2023/06/17 10:14:17;;;;;;;13.05;9.50;;;23.90;99.90;;;;;;5103601;28;20424;-76
2023/06/17 10:16:47;;;;;;;14.90;9.32;;;24.20;99.90;;;;;;5096584;28;20422;-75
2023/06/17 10:19:17;;;;;;;12.63;8.68;;;24.20;99.90;;;;;;5100025;28;20428;-76
2023/06/17 10:21:48;;;;;;;11.25;7.93;;;24.50;99.90;;;;;;5092662;28;20452;-74
2023/06/17 10:24:15;;;;;;;11.93;7.93;;;24.30;99.90;;;;;;5095686;28;20516;-76
2023/06/17 10:26:40;;;;;;;13.25;8.32;;;24.50;99.90;;;;;;5079139;28;20444;-76
2023/06/17 10:29:07;;;;;;;13.30;8.80;;;24.60;99.90;;;;;;5079480;28;20464;-75
2023/06/17 10:31:38;;;;;;;11.50;8.35;;;24.80;99.90;;;;;;5085974;28;20418;-75
2023/06/17 10:34:03;;;;;;;14.23;7.72;;;25.10;99.90;;;;;;5087968;28;20412;-77
2023/06/17 10:36:31;;;;;;;10.07;7.25;;;25.00;99.90;;;;;;5069061;28;20548;-77
2023/06/17 10:39:03;;;;;;;13.50;7.78;;;24.80;99.90;;;;;;5087028;28;20408;-79
2023/06/17 10:41:38;;;;;;;10.10;7.90;;;24.90;99.90;;;;;;5099222;28;20453;-78
2023/06/17 10:44:34;;;;;;;11.53;7.90;;;25.00;99.90;;;;;;5105344;28;20938;-78
2023/06/17 10:47:15;;;;;;;15.18;7.80;;;24.80;99.90;;;;;;5104127;28;20419;-78
2023/06/17 10:49:41;;;;;;;14.23;8.80;;;24.80;99.90;;;;;;5097991;28;20477;-79
2023/06/17 10:52:12;;;;;;;11.48;7.47;;;24.80;99.90;;;;;;5096872;28;20506;-78
2023/06/17 10:54:45;;;;;;;12.32;7.40;;;24.80;99.90;;;;;;5106353;28;21044;-78
2023/06/17 10:57:11;;;;;;;10.70;7.40;;;24.90;99.90;;;;;;5098124;28;20768;-79
2023/06/17 10:59:37;;;;;;;10.32;7.20;;;25.30;99.90;;;;;;5101366;28;20475;-77
2023/06/17 11:02:07;;;;;;;9.67;7.03;;;25.60;99.90;;;;;;5100095;28;20417;-77
2023/06/17 11:04:35;;;;;;;11.18;7.43;;;25.20;99.90;;;;;;5108411;28;20412;-75
2023/06/17 11:07:04;;;;;;;10.80;7.47;;;25.30;99.90;;;;;;5115961;27;20409;-76
2023/06/17 11:09:32;;;;;;;13.27;7.25;;;25.40;99.90;;;;;;5086421;28;20461;-76
2023/06/17 11:12:02;;;;;;;11.90;7.60;;;25.40;99.90;;;;;;5102057;28;20420;-76
2023/06/17 11:14:29;;;;;;;9.80;6.70;;;25.70;99.90;;;;;;5094787;28;20436;-76
2023/06/17 11:16:55;;;;;;;11.27;7.15;;;25.40;99.10;;;;;;5102408;28;20412;-76
2023/06/17 11:19:21;;;;;;;9.65;6.75;;;25.60;99.30;;;;;;5065466;28;20465;-77
2023/06/17 11:21:51;;;;;;;11.03;6.97;;;25.70;99.60;;;;;;5092416;28;20412;-76
2023/06/17 11:24:17;;;;;;;11.27;6.87;;;25.70;99.40;;;;;;5089128;28;20436;-76
2023/06/17 11:26:43;;;;;;;10.55;6.93;;;26.30;99.20;;;;;;5093746;28;20427;-76
2023/06/17 11:29:09;;;;;;;10.07;7.30;;;26.40;98.70;;;;;;5075927;28;20781;-77
2023/06/17 11:31:36;;;;;;;8.33;5.93;;;26.80;97.70;;;;;;5085273;28;20433;-76
2023/06/17 11:34:02;;;;;;;7.45;5.82;;;26.40;96.40;;;;;;5085265;28;20496;-76
2023/06/17 11:36:28;;;;;;;7.97;5.68;;;26.60;95.50;;;;;;5091721;28;20503;-77
2023/06/17 11:38:57;;;;;;;7.80;5.68;;;26.80;95.10;;;;;;5102653;28;20424;-77
2023/06/17 11:41:23;;;;;;;11.30;6.10;;;26.70;94.60;;;;;;5107237;28;20420;-77
2023/06/17 11:43:50;;;;;;;9.37;5.73;;;26.80;94.90;;;;;;5079602;28;20416;-77
2023/06/17 11:46:23;;;;;;;9.98;6.30;;;26.50;94.00;;;;;;5106620;28;20487;-76
2023/06/17 11:48:49;;;;;;;9.13;6.20;;;26.80;94.60;;;;;;5097583;28;20412;-76
2023/06/17 11:51:18;;;;;;;7.90;5.80;;;26.90;94.50;;;;;;5074308;28;20754;-75
2023/06/17 11:53:46;;;;;;;9.70;5.90;;;26.60;94.40;;;;;;5076521;28;20429;-76
2023/06/17 11:56:15;;;;;;;8.68;6.03;;;26.90;93.50;;;;;;5095026;28;20424;-77
2023/06/17 11:58:44;;;;;;;8.40;5.72;;;27.00;93.50;;;;;;5093268;28;20418;-76
2023/06/17 12:01:12;;;;;;;7.15;5.28;;;27.20;92.70;;;;;;5084104;28;20770;-76
2023/06/17 12:03:38;;;;;;;7.78;6.10;;;27.40;92.40;;;;;;5098844;28;20906;-77
2023/06/17 12:06:05;;;;;;;9.40;6.65;;;27.40;93.30;;;;;;5094785;28;20433;-78
2023/06/17 12:08:34;;;;;;;7.72;6.10;;;27.80;94.00;;;;;;5094672;28;20417;-76
2023/06/17 12:11:22;;;;;;;10.93;6.17;;;27.40;93.60;;;;;;5102600;28;20412;-76
2023/06/17 12:13:50;;;;;;;7.53;5.70;;;27.60;93.20;;;;;;5090852;28;20545;-77
2023/06/17 12:16:31;;;;;;;7.93;5.75;;;27.80;92.30;;;;;;5077620;28;20428;-76
2023/06/17 12:18:58;;;;;;;9.32;6.18;;;27.80;91.80;;;;;;5093090;28;20922;-75
2023/06/17 12:21:24;;;;;;;9.82;6.28;;;27.60;92.80;;;;;;5096816;28;20412;-77
2023/06/17 12:23:53;;;;;;;10.57;7.10;;;27.80;92.90;;;;;;5097209;28;20420;-77
2023/06/17 12:26:25;;;;;;;8.90;6.18;;;27.90;93.20;;;;;;5089926;28;20421;-75
2023/06/17 12:28:54;;;;;;;8.93;6.10;;;27.80;91.70;;;;;;5094065;28;20427;-77
2023/06/17 12:31:21;;;;;;;10.23;6.05;;;27.80;90.50;;;;;;5099246;28;20453;-77
2023/06/17 12:33:47;;;;;;;9.13;5.60;;;27.80;90.40;;;;;;5080031;28;20414;-76
2023/06/17 12:36:14;;;;;;;9.25;6.85;;;27.80;90.90;;;;;;5094037;28;20424;-77
2023/06/17 12:38:39;;;;;;;11.68;7.10;;;27.90;93.00;;;;;;5101432;28;20423;-77
2023/06/17 12:41:06;;;;;;;10.07;6.87;;;28.00;92.90;;;;;;5102572;28;20413;-78
2023/06/17 12:43:32;;;;;;;10.07;6.67;;;28.10;92.70;;;;;;5076877;28;20516;-77
2023/06/17 12:45:59;;;;;;;8.05;6.10;;;28.30;92.50;;;;;;5089968;28;20440;-78
2023/06/17 12:48:27;;;;;;;7.85;5.70;;;28.50;91.70;;;;;;5099549;28;20491;-77
2023/06/17 12:50:53;;;;;;;10.05;7.07;;;28.70;90.80;;;;;;5099823;28;20459;-78
2023/06/17 12:53:18;;;;;;;8.50;6.05;;;28.60;92.00;;;;;;5097327;28;20503;-78
2023/06/17 12:55:44;;;;;;;8.73;6.00;;;28.40;91.30;;;;;;5075931;28;20436;-77
2023/06/17 12:58:10;;;;;;;9.40;6.40;;;28.60;91.00;;;;;;5098123;28;20429;-77
2023/06/17 13:00:36;;;;;;;10.75;7.25;;;28.80;91.00;;;;;;5091936;28;20438;-77
2023/06/17 13:03:02;;;;;;;10.23;7.10;;;28.70;91.80;;;;;;5094369;28;20464;-77
2023/06/17 13:05:28;;;;;;;11.48;7.10;;;28.80;91.80;;;;;;5067292;28;20411;-78